createdAt,value
2023-05-16T00:00:10.988Z,9.8
2023-05-16T00:01:17.289Z,9.8
2023-05-16T00:02:23.541Z,9.8
2023-05-16T00:03:29.808Z,9.7
2023-05-16T00:04:36.078Z,9.6
2023-05-16T00:05:42.348Z,9.6
2023-05-16T00:06:48.617Z,9.6
2023-05-16T00:07:54.897Z,9.6
2023-05-16T00:09:01.167Z,9.5
2023-05-16T00:10:07.471Z,9.5
2023-05-16T00:11:13.708Z,9.5
2023-05-16T00:12:19.996Z,9.5
2023-05-16T00:13:26.266Z,9.5
2023-05-16T00:14:31.544Z,9.5
2023-05-16T00:15:37.837Z,9.5
2023-05-16T00:16:44.083Z,9.5
2023-05-16T00:17:50.361Z,9.5
2023-05-16T00:18:56.628Z,9.5
2023-05-16T00:20:02.904Z,9.5
2023-05-16T00:21:09.172Z,9.5
2023-05-16T00:22:15.438Z,9.5
2023-05-16T00:23:21.726Z,9.5
2023-05-16T00:24:27.989Z,9.5
2023-05-16T00:25:34.268Z,9.5
2023-05-16T00:26:40.547Z,9.5
2023-05-16T00:27:46.809Z,9.5
2023-05-16T00:28:52.107Z,9.5
2023-05-16T00:29:58.365Z,9.5
2023-05-16T00:31:04.638Z,9.5
2023-05-16T00:32:10.902Z,9.5
2023-05-16T00:33:17.176Z,9.5
2023-05-16T00:34:23.450Z,9.6
2023-05-16T00:35:29.724Z,9.6
2023-05-16T00:36:35.993Z,9.6
2023-05-16T00:37:42.273Z,9.6
2023-05-16T00:38:48.537Z,9.6
2023-05-16T00:39:53.833Z,9.6
2023-05-16T00:40:59.141Z,9.6
2023-05-16T00:42:04.425Z,9.6
2023-05-16T00:43:10.693Z,9.6
2023-05-16T00:44:16.995Z,9.6
2023-05-16T00:45:23.252Z,9.5
2023-05-16T00:46:29.513Z,9.5
2023-05-16T00:47:35.785Z,9.4
2023-05-16T00:48:42.054Z,9.4
2023-05-16T00:49:48.326Z,9.3
2023-05-16T00:50:54.601Z,9.3
2023-05-16T00:52:00.867Z,9.2
2023-05-16T00:53:07.138Z,9.1
2023-05-16T00:54:13.414Z,9.1
2023-05-16T00:55:19.700Z,9.1
2023-05-16T00:56:24.968Z,9.1
2023-05-16T00:57:31.259Z,9
2023-05-16T00:58:37.535Z,9
2023-05-16T00:59:43.783Z,9
2023-05-16T01:00:50.083Z,9
2023-05-16T01:01:56.338Z,9
2023-05-16T01:03:01.642Z,9
2023-05-16T01:04:06.941Z,9
2023-05-16T01:05:12.217Z,8.9
2023-05-16T01:06:18.483Z,9
2023-05-16T01:07:24.752Z,8.9
2023-05-16T01:08:31.030Z,8.9
2023-05-16T01:09:37.309Z,8.9
2023-05-16T01:10:43.582Z,8.8
2023-05-16T01:11:49.847Z,8.8
2023-05-16T01:12:56.118Z,8.8
2023-05-16T01:14:02.379Z,8.8
2023-05-16T01:15:08.668Z,8.8
2023-05-16T01:16:14.921Z,8.8
2023-05-16T01:17:21.199Z,8.8
2023-05-16T01:18:27.470Z,8.8
2023-05-16T01:19:32.758Z,8.8
2023-05-16T01:20:39.035Z,8.8
2023-05-16T01:21:45.306Z,8.8
2023-05-16T01:22:51.577Z,8.8
2023-05-16T01:23:57.844Z,8.8
2023-05-16T01:25:04.132Z,8.8
2023-05-16T01:26:09.414Z,8.9
2023-05-16T01:27:14.701Z,8.9
2023-05-16T01:28:20.975Z,8.9
2023-05-16T01:29:27.254Z,8.9
2023-05-16T01:30:33.528Z,8.9
2023-05-16T01:31:39.812Z,8.9
2023-05-16T01:32:46.056Z,8.9
2023-05-16T01:33:52.336Z,8.9
2023-05-16T01:34:58.621Z,8.9
2023-05-16T01:36:04.883Z,8.9
2023-05-16T01:37:11.143Z,8.9
2023-05-16T01:38:17.419Z,8.9
2023-05-16T01:39:23.697Z,8.9
2023-05-16T01:40:29.968Z,8.9
2023-05-16T01:41:35.272Z,8.9
2023-05-16T01:42:41.535Z,8.9
2023-05-16T01:43:47.809Z,8.8
2023-05-16T01:44:54.221Z,8.8
2023-05-16T01:46:00.339Z,8.9
2023-05-16T01:47:06.609Z,8.8
2023-05-16T01:48:11.925Z,8.9
2023-05-16T01:49:17.195Z,8.9
2023-05-16T01:50:23.496Z,8.9
2023-05-16T01:51:29.744Z,8.9
2023-05-16T01:52:36.005Z,8.9
2023-05-16T01:53:42.289Z,8.9
2023-05-16T01:54:48.562Z,8.9
2023-05-16T01:55:54.850Z,8.9
2023-05-16T01:57:01.118Z,8.9
2023-05-16T01:58:07.394Z,8.9
2023-05-16T01:59:13.648Z,8.9
2023-05-16T02:00:19.919Z,8.9
2023-05-16T02:01:26.192Z,8.9
2023-05-16T02:02:32.460Z,8.9
2023-05-16T02:03:37.747Z,8.9
2023-05-16T02:04:44.022Z,8.9
2023-05-16T02:05:50.283Z,8.9
2023-05-16T02:06:56.566Z,9
2023-05-16T02:08:02.835Z,9
2023-05-16T02:09:09.110Z,8.9
2023-05-16T02:10:14.418Z,8.9
2023-05-16T02:11:19.699Z,8.9
2023-05-16T02:12:25.962Z,8.9
2023-05-16T02:13:32.243Z,8.9
2023-05-16T02:14:38.516Z,8.9
2023-05-16T02:15:44.792Z,8.9
2023-05-16T02:16:51.058Z,8.9
2023-05-16T02:17:57.333Z,8.9
2023-05-16T02:19:03.620Z,8.9
2023-05-16T02:20:09.870Z,8.9
2023-05-16T02:21:16.152Z,8.9
2023-05-16T02:22:22.406Z,8.9
2023-05-16T02:23:28.697Z,8.9
2023-05-16T02:24:34.977Z,9
2023-05-16T02:25:40.241Z,8.9
2023-05-16T02:26:46.518Z,8.9
2023-05-16T02:27:52.798Z,8.9
2023-05-16T02:28:59.059Z,8.9
2023-05-16T02:30:05.344Z,8.9
2023-05-16T02:31:11.612Z,8.9
2023-05-16T02:32:16.906Z,8.9
2023-05-16T02:33:22.199Z,8.9
2023-05-16T02:34:28.478Z,8.9
2023-05-16T02:35:34.740Z,8.9
2023-05-16T02:36:41.006Z,8.9
2023-05-16T02:37:47.271Z,8.9
2023-05-16T02:38:53.548Z,8.9
2023-05-16T02:39:59.814Z,8.8
2023-05-16T02:41:06.108Z,8.8
2023-05-16T02:42:12.363Z,8.8
2023-05-16T02:43:18.641Z,8.8
2023-05-16T02:44:24.933Z,8.7
2023-05-16T02:45:31.184Z,8.7
2023-05-16T02:46:37.452Z,8.7
2023-05-16T02:47:42.757Z,8.7
2023-05-16T02:48:49.012Z,8.7
2023-05-16T02:49:55.287Z,8.7
2023-05-16T02:51:01.552Z,8.6
2023-05-16T02:52:07.820Z,8.6
2023-05-16T02:53:14.113Z,8.5
2023-05-16T02:54:19.430Z,8.5
2023-05-16T02:55:24.684Z,8.5
2023-05-16T02:56:30.956Z,8.5
2023-05-16T02:57:37.236Z,8.5
2023-05-16T02:58:43.504Z,8.4
2023-05-16T02:59:49.770Z,8.4
2023-05-16T03:00:56.048Z,8.4
2023-05-16T03:02:02.316Z,8.4
2023-05-16T03:03:08.599Z,8.3
2023-05-16T03:04:14.867Z,8.3
2023-05-16T03:05:21.136Z,8.3
2023-05-16T03:06:27.412Z,8.3
2023-05-16T03:07:33.671Z,8.3
2023-05-16T03:08:39.948Z,8.3
2023-05-16T03:09:45.230Z,8.3
2023-05-16T03:10:51.511Z,8.3
2023-05-16T03:11:57.774Z,8.3
2023-05-16T03:13:04.052Z,8.4
2023-05-16T03:14:10.327Z,8.4
2023-05-16T03:15:16.623Z,8.4
2023-05-16T03:16:22.869Z,8.4
2023-05-16T03:17:29.145Z,8.4
2023-05-16T03:18:35.405Z,8.4
2023-05-16T03:19:41.676Z,8.4
2023-05-16T03:20:47.957Z,8.4
2023-05-16T03:21:54.226Z,8.3
2023-05-16T03:23:00.499Z,8.3
2023-05-16T03:24:05.782Z,8.4
2023-05-16T03:25:12.055Z,8.3
2023-05-16T03:26:18.331Z,8.4
2023-05-16T03:27:24.613Z,8.3
2023-05-16T03:28:30.880Z,8.4
2023-05-16T03:29:37.180Z,8.4
2023-05-16T03:30:43.434Z,8.4
2023-05-16T03:31:49.705Z,8.4
2023-05-16T03:32:55.963Z,8.4
2023-05-16T03:34:02.249Z,8.4
2023-05-16T03:35:08.508Z,8.4
2023-05-16T03:36:14.788Z,8.4
2023-05-16T03:37:21.048Z,8.5
2023-05-16T03:38:26.340Z,8.5
2023-05-16T03:39:32.636Z,8.5
2023-05-16T03:40:37.915Z,8.5
2023-05-16T03:41:44.183Z,8.5
2023-05-16T03:42:50.451Z,8.5
2023-05-16T03:43:56.732Z,8.5
2023-05-16T03:45:02.990Z,8.5
2023-05-16T03:46:09.273Z,8.6
2023-05-16T03:47:15.538Z,8.6
2023-05-16T03:48:21.819Z,8.6
2023-05-16T03:49:28.111Z,8.7
2023-05-16T03:50:34.355Z,8.7
2023-05-16T03:51:40.621Z,8.7
2023-05-16T03:52:46.895Z,8.8
2023-05-16T03:53:53.221Z,8.8
2023-05-16T03:54:58.448Z,8.9
2023-05-16T03:56:04.726Z,8.9
2023-05-16T03:57:11.005Z,8.9
2023-05-16T03:58:17.271Z,8.9
2023-05-16T03:59:23.563Z,8.9
2023-05-16T04:00:29.820Z,8.9
2023-05-16T04:01:36.086Z,8.9
2023-05-16T04:02:42.359Z,9
2023-05-16T04:03:48.649Z,9
2023-05-16T04:04:54.925Z,9
2023-05-16T04:06:01.178Z,9
2023-05-16T04:07:07.453Z,9
2023-05-16T04:08:13.713Z,9
2023-05-16T04:09:19.026Z,9
2023-05-16T04:10:25.275Z,9
2023-05-16T04:11:31.551Z,9
2023-05-16T04:12:37.821Z,9
2023-05-16T04:13:44.109Z,9.1
2023-05-16T04:14:50.365Z,9.1
2023-05-16T04:15:56.637Z,9.1
2023-05-16T04:17:02.924Z,9.1
2023-05-16T04:18:09.183Z,9.1
2023-05-16T04:19:15.464Z,9.1
2023-05-16T04:20:21.723Z,9.1
2023-05-16T04:21:27.991Z,9.1
2023-05-16T04:22:34.267Z,9.1
2023-05-16T04:23:39.566Z,9.1
2023-05-16T04:24:45.821Z,9.2
2023-05-16T04:25:52.108Z,9.2
2023-05-16T04:26:58.360Z,9.2
2023-05-16T04:28:04.686Z,9.2
2023-05-16T04:29:11.003Z,9.2
2023-05-16T04:30:17.179Z,9.2
2023-05-16T04:31:23.453Z,9.2
2023-05-16T04:32:29.733Z,9.2
2023-05-16T04:33:36.010Z,9.2
2023-05-16T04:34:42.270Z,9.2
2023-05-16T04:35:48.549Z,9.2
2023-05-16T04:36:54.834Z,9.2
2023-05-16T04:38:00.122Z,9.2
2023-05-16T04:39:06.397Z,9.2
2023-05-16T04:40:12.698Z,9.2
2023-05-16T04:41:18.928Z,9.2
2023-05-16T04:42:25.193Z,9.2
2023-05-16T04:43:31.519Z,9.2
2023-05-16T04:44:37.726Z,9.2
2023-05-16T04:45:44.008Z,9.2
2023-05-16T04:46:50.272Z,9.3
2023-05-16T04:47:56.554Z,9.3
2023-05-16T04:49:02.832Z,9.2
2023-05-16T04:50:09.096Z,9.2
2023-05-16T04:51:15.370Z,9.3
2023-05-16T04:52:20.666Z,9.3
2023-05-16T04:53:26.943Z,9.3
2023-05-16T04:54:33.231Z,9.2
2023-05-16T04:55:39.470Z,9.2
2023-05-16T04:56:45.741Z,9.3
2023-05-16T04:57:52.007Z,9.3
2023-05-16T04:58:58.285Z,9.2
2023-05-16T05:00:04.575Z,9.2
2023-05-16T05:01:10.832Z,9.2
2023-05-16T05:02:17.104Z,9.2
2023-05-16T05:03:23.387Z,9.2
2023-05-16T05:04:29.643Z,9.3
2023-05-16T05:05:35.929Z,9.3
2023-05-16T05:06:41.208Z,9.3
2023-05-16T05:07:47.482Z,9.3
2023-05-16T05:08:53.754Z,9.3
2023-05-16T05:11:06.309Z,9.4
2023-05-16T05:12:12.575Z,9.4
2023-05-16T05:13:18.852Z,9.4
2023-05-16T05:14:25.134Z,9.5
2023-05-16T05:15:31.376Z,9.5
2023-05-16T05:16:37.653Z,9.6
2023-05-16T05:17:43.932Z,9.6
2023-05-16T05:18:50.203Z,9.6
2023-05-16T05:19:56.466Z,9.6
2023-05-16T05:21:01.758Z,9.7
2023-05-16T05:22:08.023Z,9.7
2023-05-16T05:23:14.325Z,9.8
2023-05-16T05:24:20.598Z,9.8
2023-05-16T05:25:26.835Z,9.8
2023-05-16T05:26:33.125Z,9.8
2023-05-16T05:27:39.386Z,9.8
2023-05-16T05:28:45.654Z,9.8
2023-05-16T05:29:51.937Z,9.8
2023-05-16T05:30:58.190Z,9.9
2023-05-16T05:32:04.461Z,9.9
2023-05-16T05:33:10.755Z,9.9
2023-05-16T05:34:17.010Z,9.9
2023-05-16T05:35:22.296Z,10
2023-05-16T05:36:28.563Z,10
2023-05-16T05:37:34.840Z,10
2023-05-16T05:38:41.115Z,10
2023-05-16T05:39:47.382Z,10.1
2023-05-16T05:40:53.666Z,10.1
2023-05-16T05:41:59.931Z,10.1
2023-05-16T05:43:06.215Z,10.2
2023-05-16T05:44:12.473Z,10.2
2023-05-16T05:45:18.788Z,10.2
2023-05-16T05:46:25.035Z,10.3
2023-05-16T05:47:31.288Z,10.3
2023-05-16T05:48:37.557Z,10.3
2023-05-16T05:49:42.846Z,10.3
2023-05-16T05:50:49.129Z,10.4
2023-05-16T05:51:55.384Z,10.4
2023-05-16T05:53:01.667Z,10.4
2023-05-16T05:54:07.953Z,10.4
2023-05-16T05:55:14.202Z,10.5
2023-05-16T05:56:20.480Z,10.5
2023-05-16T05:57:26.769Z,10.5
2023-05-16T05:58:33.030Z,10.5
2023-05-16T05:59:39.294Z,10.6
2023-05-16T06:00:45.572Z,10.6
2023-05-16T06:01:51.825Z,10.6
2023-05-16T06:02:58.128Z,10.7
2023-05-16T06:04:03.394Z,10.7
2023-05-16T06:05:09.665Z,10.8
2023-05-16T06:06:15.946Z,10.8
2023-05-16T06:07:22.225Z,10.8
2023-05-16T06:08:28.492Z,10.9
2023-05-16T06:09:34.774Z,10.9
2023-05-16T06:10:41.020Z,11
2023-05-16T06:11:47.298Z,11
2023-05-16T06:12:53.652Z,11
2023-05-16T06:13:59.875Z,11
2023-05-16T06:15:06.115Z,11.1
2023-05-16T06:16:12.395Z,11.1
2023-05-16T06:17:18.666Z,11.1
2023-05-16T06:18:23.951Z,11.2
2023-05-16T06:19:30.265Z,11.2
2023-05-16T06:20:36.497Z,11.3
2023-05-16T06:21:42.761Z,11.3
2023-05-16T06:22:49.041Z,11.3
2023-05-16T06:23:55.307Z,11.4
2023-05-16T06:25:01.623Z,11.5
2023-05-16T06:26:07.857Z,11.5
2023-05-16T06:27:14.185Z,11.6
2023-05-16T06:28:20.408Z,11.6
2023-05-16T06:29:26.675Z,11.7
2023-05-16T06:30:32.938Z,11.7
2023-05-16T06:31:39.214Z,11.7
2023-05-16T06:32:45.513Z,11.8
2023-05-16T06:33:50.771Z,11.8
2023-05-16T06:34:57.073Z,11.9
2023-05-16T06:36:03.317Z,11.9
2023-05-16T06:37:09.599Z,12
2023-05-16T06:38:15.861Z,12
2023-05-16T06:39:22.142Z,12
2023-05-16T06:40:28.403Z,12
2023-05-16T06:41:34.673Z,12
2023-05-16T06:42:40.984Z,12.1
2023-05-16T06:43:47.217Z,12.1
2023-05-16T06:44:53.490Z,12.1
2023-05-16T06:45:59.770Z,12.2
2023-05-16T06:47:06.029Z,12.2
2023-05-16T06:48:11.322Z,12.2
2023-05-16T06:49:17.607Z,12.2
2023-05-16T06:50:23.873Z,12.2
2023-05-16T06:51:30.145Z,12.3
2023-05-16T06:52:36.464Z,12.2
2023-05-16T06:53:42.677Z,12.3
2023-05-16T06:54:48.967Z,12.3
2023-05-16T06:55:55.242Z,12.3
2023-05-16T06:57:01.491Z,12.3
2023-05-16T06:58:07.774Z,12.3
2023-05-16T06:59:14.077Z,12.3
2023-05-16T07:00:20.313Z,12.3
2023-05-16T07:01:26.581Z,12.3
2023-05-16T07:02:31.887Z,12.4
2023-05-16T07:03:38.143Z,12.4
2023-05-16T07:04:44.421Z,12.4
2023-05-16T07:05:50.693Z,12.5
2023-05-16T07:06:56.959Z,12.5
2023-05-16T07:08:03.227Z,12.6
2023-05-16T07:09:09.515Z,12.6
2023-05-16T07:10:15.798Z,12.7
2023-05-16T07:11:22.053Z,12.7
2023-05-16T07:12:28.337Z,12.8
2023-05-16T07:13:34.592Z,12.8
2023-05-16T07:14:40.864Z,12.8
2023-05-16T07:15:47.163Z,12.8
2023-05-16T07:16:52.432Z,12.8
2023-05-16T07:17:58.692Z,12.8
2023-05-16T07:19:04.991Z,12.9
2023-05-16T07:20:11.269Z,12.9
2023-05-16T07:21:17.547Z,13
2023-05-16T07:22:23.784Z,13
2023-05-16T07:23:29.097Z,13.1
2023-05-16T07:24:35.350Z,13.2
2023-05-16T07:25:41.626Z,13.2
2023-05-16T07:26:48.001Z,13.3
2023-05-16T07:27:54.199Z,13.3
2023-05-16T07:29:00.474Z,13.4
2023-05-16T07:30:06.709Z,13.5
2023-05-16T07:31:12.979Z,13.5
2023-05-16T07:32:19.260Z,13.6
2023-05-16T07:33:25.558Z,13.6
2023-05-16T07:34:31.794Z,13.6
2023-05-16T07:35:38.073Z,13.6
2023-05-16T07:36:44.373Z,13.6
2023-05-16T07:37:50.657Z,13.6
2023-05-16T07:38:55.918Z,13.6
2023-05-16T07:41:08.552Z,13.6
2023-05-16T07:42:14.720Z,13.6
2023-05-16T07:43:21.039Z,13.6
2023-05-16T07:44:27.298Z,13.6
2023-05-16T07:45:33.530Z,13.6
2023-05-16T07:46:39.900Z,13.6
2023-05-16T07:47:46.222Z,13.6
2023-05-16T07:48:52.337Z,13.6
2023-05-16T07:49:58.619Z,13.6
2023-05-16T07:51:04.879Z,13.7
2023-05-16T07:52:11.178Z,13.6
2023-05-16T07:53:16.439Z,13.7
2023-05-16T07:54:22.710Z,13.7
2023-05-16T07:55:28.977Z,13.7
2023-05-16T07:56:35.259Z,13.7
2023-05-16T07:57:41.602Z,13.8
2023-05-16T07:58:47.802Z,13.8
2023-05-16T07:59:54.102Z,13.8
2023-05-16T08:01:00.337Z,13.8
2023-05-16T08:02:06.630Z,13.9
2023-05-16T08:03:12.885Z,13.9
2023-05-16T08:04:19.177Z,14
2023-05-16T08:05:25.430Z,14
2023-05-16T08:06:31.700Z,14
2023-05-16T08:07:37.974Z,14.1
2023-05-16T08:08:43.289Z,14.1
2023-05-16T08:09:49.564Z,14.2
2023-05-16T08:10:55.838Z,14.3
2023-05-16T08:12:02.089Z,14.3
2023-05-16T08:13:08.358Z,14.3
2023-05-16T08:14:14.725Z,14.4
2023-05-16T08:15:21.008Z,14.4
2023-05-16T08:16:27.286Z,14.4
2023-05-16T08:17:33.431Z,14.4
2023-05-16T08:18:39.716Z,14.5
2023-05-16T08:19:46.013Z,14.5
2023-05-16T08:20:52.245Z,14.6
2023-05-16T08:21:58.617Z,14.6
2023-05-16T08:23:03.808Z,14.6
2023-05-16T08:24:10.090Z,14.6
2023-05-16T08:25:16.362Z,14.6
2023-05-16T08:26:22.637Z,14.6
2023-05-16T08:27:28.903Z,14.7
2023-05-16T08:28:35.171Z,14.6
2023-05-16T08:29:41.450Z,14.7
2023-05-16T08:30:47.788Z,14.7
2023-05-16T08:31:53.996Z,14.7
2023-05-16T08:33:00.291Z,14.8
2023-05-16T08:34:06.531Z,14.8
2023-05-16T08:35:12.824Z,14.8
2023-05-16T08:36:19.096Z,14.8
2023-05-16T08:37:24.363Z,14.8
2023-05-16T08:38:30.661Z,14.7
2023-05-16T08:39:36.901Z,14.7
2023-05-16T08:40:43.209Z,14.6
2023-05-16T08:41:49.593Z,14.6
2023-05-16T08:42:55.854Z,14.6
2023-05-16T08:44:02.175Z,14.5
2023-05-16T08:45:08.390Z,14.4
2023-05-16T08:46:14.756Z,14.4
2023-05-16T08:47:20.813Z,14.3
2023-05-16T08:48:27.081Z,14.3
2023-05-16T08:49:33.354Z,14.3
2023-05-16T08:50:39.647Z,14.3
2023-05-16T08:51:45.896Z,14.2
2023-05-16T08:52:51.193Z,14.2
2023-05-16T08:53:57.456Z,14.2
2023-05-16T08:55:03.735Z,14.2
2023-05-16T08:56:09.996Z,14.2
2023-05-16T08:57:16.264Z,14.2
2023-05-16T08:58:22.548Z,14.2
2023-05-16T08:59:28.842Z,14.1
2023-05-16T09:00:35.233Z,14.1
2023-05-16T09:01:41.516Z,14.1
2023-05-16T09:02:47.650Z,14.1
2023-05-16T09:03:54.008Z,14
2023-05-16T09:05:00.248Z,14
2023-05-16T09:06:06.600Z,14
2023-05-16T09:07:11.738Z,14
2023-05-16T09:08:18.006Z,13.9
2023-05-16T09:09:24.281Z,13.9
2023-05-16T09:10:30.554Z,13.9
2023-05-16T09:11:36.835Z,13.8
2023-05-16T09:12:43.099Z,13.8
2023-05-16T09:13:49.366Z,13.8
2023-05-16T09:14:55.642Z,13.8
2023-05-16T09:16:01.907Z,13.8
2023-05-16T09:17:08.227Z,13.8
2023-05-16T09:18:14.461Z,13.8
2023-05-16T09:19:20.731Z,13.8
2023-05-16T09:20:27.004Z,13.8
2023-05-16T09:21:32.288Z,13.8
2023-05-16T09:22:38.558Z,13.8
2023-05-16T09:23:44.831Z,13.8
2023-05-16T09:24:51.105Z,13.8
2023-05-16T09:25:57.402Z,13.8
2023-05-16T09:27:03.652Z,13.7
2023-05-16T09:28:09.921Z,13.7
2023-05-16T09:29:16.191Z,13.8
2023-05-16T09:30:22.486Z,13.8
2023-05-16T09:31:28.740Z,13.7
2023-05-16T09:32:35.027Z,13.7
2023-05-16T09:33:41.310Z,13.8
2023-05-16T09:34:47.555Z,13.8
2023-05-16T09:35:52.847Z,13.8
2023-05-16T09:36:59.111Z,13.8
2023-05-16T09:38:05.411Z,13.8
2023-05-16T09:39:11.651Z,13.8
2023-05-16T09:40:17.923Z,13.8
2023-05-16T09:41:24.193Z,13.8
2023-05-16T09:42:30.462Z,13.8
2023-05-16T09:43:36.770Z,13.8
2023-05-16T09:44:43.044Z,13.8
2023-05-16T09:45:49.309Z,13.8
2023-05-16T09:46:55.575Z,13.8
2023-05-16T09:48:01.832Z,13.9
2023-05-16T09:49:08.158Z,13.8
2023-05-16T09:50:13.421Z,13.8
2023-05-16T09:51:19.665Z,13.8
2023-05-16T09:52:25.933Z,13.8
2023-05-16T09:53:32.227Z,13.8
2023-05-16T09:54:38.471Z,13.8
2023-05-16T09:55:44.744Z,13.8
2023-05-16T09:56:51.019Z,13.8
2023-05-16T09:57:57.308Z,13.8
2023-05-16T09:59:03.569Z,13.8
2023-05-16T10:00:09.823Z,13.8
2023-05-16T10:01:16.097Z,13.9
2023-05-16T10:02:22.375Z,13.9
2023-05-16T10:03:28.643Z,14
2023-05-16T10:04:33.931Z,14
2023-05-16T10:05:40.207Z,14
2023-05-16T10:06:46.485Z,14
2023-05-16T10:07:52.744Z,14
2023-05-16T10:08:59.043Z,14
2023-05-16T10:10:05.292Z,14.1
2023-05-16T10:11:11.591Z,14
2023-05-16T10:12:17.847Z,14
2023-05-16T10:13:24.107Z,14
2023-05-16T10:14:30.389Z,14
2023-05-16T10:15:36.675Z,13.9
2023-05-16T10:16:42.928Z,13.9
2023-05-16T10:17:49.197Z,13.9
2023-05-16T10:18:54.487Z,13.9
2023-05-16T10:20:00.755Z,13.9
2023-05-16T10:21:07.047Z,13.9
2023-05-16T10:22:13.304Z,13.9
2023-05-16T10:23:19.569Z,13.9
2023-05-16T10:24:25.829Z,13.9
2023-05-16T10:25:32.114Z,13.9
2023-05-16T10:26:38.389Z,13.9
2023-05-16T10:27:44.664Z,13.9
2023-05-16T10:28:50.980Z,14
2023-05-16T10:29:57.836Z,14
2023-05-16T10:31:03.576Z,13.9
2023-05-16T10:32:09.769Z,13.9
2023-05-16T10:33:15.186Z,13.9
2023-05-16T10:34:21.319Z,13.9
2023-05-16T10:35:27.582Z,13.9
2023-05-16T10:36:33.858Z,13.9
2023-05-16T10:37:40.136Z,13.9
2023-05-16T10:38:46.382Z,14
2023-05-16T10:39:52.654Z,14
2023-05-16T10:40:58.931Z,14
2023-05-16T10:42:05.205Z,14.1
2023-05-16T10:43:11.462Z,14.1
2023-05-16T10:44:17.739Z,14.2
2023-05-16T10:45:24.022Z,14.2
2023-05-16T10:46:30.317Z,14.2
2023-05-16T10:47:36.588Z,14.3
2023-05-16T10:48:41.871Z,14.4
2023-05-16T10:49:48.116Z,14.5
2023-05-16T10:50:54.388Z,14.5
2023-05-16T10:52:00.681Z,14.6
2023-05-16T10:53:06.925Z,14.6
2023-05-16T10:54:13.223Z,14.6
2023-05-16T10:55:19.466Z,14.5
2023-05-16T10:56:25.745Z,14.5
2023-05-16T10:57:32.020Z,14.4
2023-05-16T10:58:38.284Z,14.4
2023-05-16T10:59:44.576Z,14.4
2023-05-16T11:01:57.140Z,14.5
2023-05-16T11:03:03.400Z,14.5
2023-05-16T11:04:08.675Z,14.4
2023-05-16T11:05:13.994Z,14.4
2023-05-16T11:06:20.233Z,14.5
2023-05-16T11:07:26.506Z,14.5
2023-05-16T11:08:32.775Z,14.5
2023-05-16T11:09:39.050Z,14.4
2023-05-16T11:10:45.322Z,14.4
2023-05-16T11:11:51.593Z,14.4
2023-05-16T11:12:57.889Z,14.4
2023-05-16T11:14:04.156Z,14.4
2023-05-16T11:15:10.434Z,14.5
2023-05-16T11:16:16.714Z,14.5
2023-05-16T11:17:22.952Z,14.5
2023-05-16T11:18:29.225Z,14.6
2023-05-16T11:19:34.505Z,14.6
2023-05-16T11:20:40.793Z,14.6
2023-05-16T11:21:47.085Z,14.6
2023-05-16T11:22:53.418Z,14.7
2023-05-16T11:23:59.593Z,14.7
2023-05-16T11:25:06.052Z,14.7
2023-05-16T11:26:12.286Z,14.7
2023-05-16T11:27:18.443Z,14.7
2023-05-16T11:28:24.820Z,14.6
2023-05-16T11:29:30.959Z,14.6
2023-05-16T11:30:37.233Z,14.5
2023-05-16T11:31:43.511Z,14.5
2023-05-16T11:32:49.768Z,14.5
2023-05-16T11:33:55.065Z,14.5
2023-05-16T11:35:01.337Z,14.5
2023-05-16T11:36:07.630Z,14.5
2023-05-16T11:37:13.909Z,14.4
2023-05-16T11:38:20.187Z,14.4
2023-05-16T11:39:26.414Z,14.4
2023-05-16T11:40:32.697Z,14.4
2023-05-16T11:41:38.991Z,14.4
2023-05-16T11:42:45.231Z,14.4
2023-05-16T11:43:51.507Z,14.3
2023-05-16T11:44:57.810Z,14.3
2023-05-16T11:46:04.087Z,14.3
2023-05-16T11:47:10.348Z,14.3
2023-05-16T11:48:15.632Z,14.3
2023-05-16T11:49:21.917Z,14.3
2023-05-16T11:50:28.159Z,14.2
2023-05-16T11:51:34.451Z,14.2
2023-05-16T11:52:40.723Z,14.2
2023-05-16T11:53:46.972Z,14.2
2023-05-16T11:54:53.239Z,14.2
2023-05-16T11:55:59.652Z,14.1
2023-05-16T11:57:05.826Z,14.1
2023-05-16T11:58:12.110Z,14.1
2023-05-16T11:59:18.358Z,14.1
2023-05-16T12:00:24.766Z,14.1
2023-05-16T12:01:30.872Z,14.1
2023-05-16T12:02:36.263Z,14.1
2023-05-16T12:03:42.434Z,14.1
2023-05-16T12:04:48.701Z,14
2023-05-16T12:05:54.986Z,14
2023-05-16T12:07:01.246Z,14
2023-05-16T12:08:07.525Z,14
2023-05-16T12:09:13.783Z,14.1
2023-05-16T12:10:20.061Z,14.1
2023-05-16T12:11:26.329Z,14.2
2023-05-16T12:12:32.625Z,14.2
2023-05-16T12:13:38.876Z,14.2
2023-05-16T12:14:45.227Z,14.3
2023-05-16T12:15:51.443Z,14.2
2023-05-16T12:16:56.714Z,14.2
2023-05-16T12:18:02.990Z,14.2
2023-05-16T12:19:09.255Z,14.3
2023-05-16T12:20:15.543Z,14.3
2023-05-16T12:21:21.793Z,14.3
2023-05-16T12:22:28.072Z,14.3
2023-05-16T12:23:34.359Z,14.3
2023-05-16T12:24:40.641Z,14.2
2023-05-16T12:25:46.893Z,14.2
2023-05-16T12:26:53.165Z,14.2
2023-05-16T12:27:59.433Z,14.1
2023-05-16T12:29:05.696Z,14.1
2023-05-16T12:30:11.965Z,14.1
2023-05-16T12:31:17.380Z,14.1
2023-05-16T12:32:23.525Z,14.1
2023-05-16T12:33:29.816Z,14.1
2023-05-16T12:34:36.080Z,14.2
2023-05-16T12:35:42.355Z,14.2
2023-05-16T12:36:48.648Z,14.2
2023-05-16T12:37:54.884Z,14.2
2023-05-16T12:39:01.189Z,14.2
2023-05-16T12:40:07.434Z,14.2
2023-05-16T12:41:13.730Z,14.2
2023-05-16T12:42:20.007Z,14.2
2023-05-16T12:43:26.244Z,14.2
2023-05-16T12:44:32.534Z,14.3
2023-05-16T12:45:37.838Z,14.3
2023-05-16T12:46:44.081Z,14.3
2023-05-16T12:47:50.377Z,14.2
2023-05-16T12:48:56.622Z,14.3
2023-05-16T12:50:02.892Z,14.2
2023-05-16T12:51:09.169Z,14.2
2023-05-16T12:52:15.473Z,14.2
2023-05-16T12:53:21.700Z,14.2
2023-05-16T12:54:27.980Z,14.2
2023-05-16T12:55:34.247Z,14.2
2023-05-16T12:56:40.523Z,14.3
2023-05-16T12:57:46.982Z,14.3
2023-05-16T12:58:53.074Z,14.3
2023-05-16T12:59:59.349Z,14.3
2023-05-16T13:01:04.629Z,14.3
2023-05-16T13:02:10.920Z,14.3
2023-05-16T13:03:17.192Z,14.3
2023-05-16T13:04:23.477Z,14.3
2023-05-16T13:05:29.716Z,14.3
2023-05-16T13:06:35.983Z,14.3
2023-05-16T13:07:42.282Z,14.3
2023-05-16T13:08:48.579Z,14.4
2023-05-16T13:09:54.853Z,14.4
2023-05-16T13:11:01.097Z,14.4
2023-05-16T13:12:07.341Z,14.4
2023-05-16T13:13:13.617Z,14.4
2023-05-16T13:14:19.888Z,14.4
2023-05-16T13:15:25.205Z,14.4
2023-05-16T13:16:31.447Z,14.4
2023-05-16T13:17:37.798Z,14.4
2023-05-16T13:18:44.001Z,14.4
2023-05-16T13:19:50.287Z,14.5
2023-05-16T13:20:56.530Z,14.5
2023-05-16T13:22:02.805Z,14.5
2023-05-16T13:23:09.119Z,14.5
2023-05-16T13:24:15.349Z,14.5
2023-05-16T13:25:21.624Z,14.6
2023-05-16T13:26:27.918Z,14.6
2023-05-16T13:27:34.165Z,14.7
2023-05-16T13:28:40.434Z,14.7
2023-05-16T13:29:45.724Z,14.7
2023-05-16T13:30:51.996Z,14.7
2023-05-16T13:31:58.269Z,14.7
2023-05-16T13:33:04.537Z,14.7
2023-05-16T13:34:10.809Z,14.7
2023-05-16T13:35:17.147Z,14.7
2023-05-16T13:36:23.380Z,14.7
2023-05-16T13:37:29.626Z,14.7
2023-05-16T13:38:35.895Z,14.8
2023-05-16T13:39:42.204Z,14.8
2023-05-16T13:40:48.495Z,14.8
2023-05-16T13:41:54.766Z,14.9
2023-05-16T13:43:01.123Z,14.9
2023-05-16T13:44:06.290Z,14.9
2023-05-16T13:45:12.545Z,14.9
2023-05-16T13:46:18.845Z,15
2023-05-16T13:47:25.257Z,15
2023-05-16T13:48:31.362Z,15
2023-05-16T13:49:37.668Z,15
2023-05-16T13:50:43.915Z,15
2023-05-16T13:51:50.236Z,14.9
2023-05-16T13:52:56.448Z,14.9
2023-05-16T13:54:02.719Z,14.9
2023-05-16T13:55:08.996Z,14.9
2023-05-16T13:56:15.270Z,14.9
2023-05-16T13:57:21.556Z,14.8
2023-05-16T13:58:26.828Z,14.8
2023-05-16T13:59:33.094Z,14.8
2023-05-16T14:00:39.373Z,14.8
2023-05-16T14:01:45.633Z,14.7
2023-05-16T14:02:51.914Z,14.7
2023-05-16T14:03:58.179Z,14.7
2023-05-16T14:05:04.441Z,14.7
2023-05-16T14:06:10.711Z,14.7
2023-05-16T14:07:17.000Z,14.7
2023-05-16T14:08:23.285Z,14.6
2023-05-16T14:09:29.539Z,14.6
2023-05-16T14:10:35.810Z,14.6
2023-05-16T14:11:42.082Z,14.6
2023-05-16T14:12:47.367Z,14.6
2023-05-16T14:13:53.638Z,14.5
2023-05-16T14:14:59.907Z,14.6
2023-05-16T14:16:06.202Z,14.5
2023-05-16T14:17:12.454Z,14.5
2023-05-16T14:18:18.730Z,14.5
2023-05-16T14:19:25.002Z,14.6
2023-05-16T14:20:31.273Z,14.5
2023-05-16T14:21:37.542Z,14.5
2023-05-16T14:22:43.886Z,14.5
2023-05-16T14:23:50.092Z,14.4
2023-05-16T14:24:56.378Z,14.4
2023-05-16T14:26:02.669Z,14.4
2023-05-16T14:27:08.901Z,14.3
2023-05-16T14:28:14.223Z,14.3
2023-05-16T14:29:20.539Z,14.3
2023-05-16T14:30:26.735Z,14.3
2023-05-16T14:31:33.006Z,14.3
2023-05-16T14:32:39.281Z,14.3
2023-05-16T14:33:45.566Z,14.3
2023-05-16T14:34:51.851Z,14.3
2023-05-16T14:35:58.196Z,14.3
2023-05-16T14:37:04.359Z,14.3
2023-05-16T14:38:10.643Z,14.2
2023-05-16T14:39:16.918Z,14.2
2023-05-16T14:40:23.176Z,14.2
2023-05-16T14:41:29.497Z,14.2
2023-05-16T14:42:34.782Z,14.2
2023-05-16T14:43:41.034Z,14.2
2023-05-16T14:44:47.287Z,14.2
2023-05-16T14:45:53.553Z,14.2
2023-05-16T14:46:58.851Z,14.2
2023-05-16T14:48:05.125Z,14.2
2023-05-16T14:49:11.481Z,14.3
2023-05-16T14:50:17.652Z,14.3
2023-05-16T14:51:23.931Z,14.3
2023-05-16T14:52:30.306Z,14.3
2023-05-16T14:53:36.482Z,14.3
2023-05-16T14:54:42.759Z,14.4
2023-05-16T14:55:49.017Z,14.4
2023-05-16T14:56:55.295Z,14.4
2023-05-16T14:58:01.566Z,14.4
2023-05-16T14:59:07.861Z,14.3
2023-05-16T15:00:14.101Z,14.3